createdAt,value
2023-01-15T04:32:31.327Z,100177.95
2023-01-15T04:34:58.282Z,100206.08
2023-01-15T04:37:27.154Z,100206.56
2023-01-15T04:45:28.140Z,100183.75
2023-01-15T04:47:55.368Z,100176.44
2023-01-15T04:50:22.420Z,100170.46
2023-01-15T04:52:50.108Z,100170.39
2023-01-15T04:55:16.925Z,100167.85
2023-01-15T04:57:43.848Z,100161.85
2023-01-15T05:00:11.341Z,100157.44
2023-01-15T05:02:39.522Z,100155.41
2023-01-15T05:05:06.963Z,100154.06
2023-01-15T05:07:38.374Z,100154.94
2023-01-15T05:10:06.038Z,100158.23
2023-01-15T05:12:33.010Z,100161.00
2023-01-15T05:14:59.906Z,100163.25
2023-01-15T05:17:26.865Z,100165.54
2023-01-15T05:19:54.308Z,100169.34
2023-01-15T05:22:21.283Z,100167.98
2023-01-15T05:24:48.137Z,100176.23
2023-01-15T05:27:15.619Z,100179.88
2023-01-15T05:29:42.919Z,100183.20
2023-01-15T05:32:09.973Z,100179.27
2023-01-15T05:34:37.099Z,100174.08
2023-01-15T05:37:03.942Z,100176.98
2023-01-15T05:39:30.813Z,100179.23
2023-01-15T05:41:58.020Z,100177.52
2023-01-15T05:44:29.057Z,100178.74
2023-01-15T05:46:58.425Z,100177.00
2023-01-15T05:49:30.711Z,100177.48
2023-01-15T05:51:58.170Z,100176.27
2023-01-15T06:27:44.300Z,100203.77
2023-01-15T06:30:11.819Z,100217.95
2023-01-15T06:32:39.474Z,100214.75
2023-01-15T06:35:07.365Z,100205.27
2023-01-15T06:37:35.327Z,100198.19
2023-01-15T06:40:04.026Z,100189.01
2023-01-15T06:42:50.347Z,100184.79
2023-01-15T06:45:36.959Z,100179.32
2023-01-15T06:48:04.577Z,100174.06
2023-01-15T06:50:32.391Z,100171.21
2023-01-15T06:52:59.266Z,100163.52
2023-01-15T06:55:26.853Z,100159.23
2023-01-15T06:57:54.220Z,100159.39
2023-01-15T07:00:21.963Z,100164.60
2023-01-15T07:02:49.859Z,100165.73
2023-01-15T07:05:17.371Z,100164.21
2023-01-15T07:07:44.436Z,100168.15
2023-01-15T07:10:13.087Z,100169.20
2023-01-15T07:12:40.493Z,100168.05
2023-01-15T07:15:09.167Z,100166.69
2023-01-15T07:17:38.074Z,100166.33
2023-01-15T12:15:42.894Z,99945.35
2023-01-15T12:18:21.453Z,99960.92
2023-01-15T12:20:54.500Z,99956.24
2023-01-15T12:23:55.466Z,99950.79
2023-01-15T12:26:33.396Z,99950.34
2023-01-15T12:29:32.659Z,99951.23
2023-01-15T12:32:03.490Z,99953.34
2023-01-15T12:34:54.961Z,99950.77
2023-01-15T12:37:25.341Z,99944.39
2023-01-15T12:39:56.213Z,99946.45
2023-01-15T12:42:42.921Z,99948.20
2023-01-15T12:45:12.676Z,99945.11
2023-01-15T12:47:54.328Z,99939.75
2023-01-15T12:50:32.583Z,99933.35
2023-01-15T12:53:17.028Z,99933.36
2023-01-15T12:55:50.133Z,99932.84
2023-01-15T12:58:26.687Z,99926.45
2023-01-15T13:00:58.501Z,99923.86
2023-01-15T13:03:30.441Z,99931.63
2023-01-15T13:06:02.832Z,99924.55
2023-01-15T13:08:39.033Z,99912.11
2023-01-15T13:11:07.804Z,99897.98
2023-01-15T13:13:36.741Z,99901.59
2023-01-15T13:16:03.862Z,99902.98
2023-01-15T13:18:54.092Z,99903.31
2023-01-15T13:21:21.772Z,99907.11
2023-01-15T13:24:14.405Z,99906.59
2023-01-15T13:26:54.690Z,99903.48
2023-01-15T13:30:04.007Z,99892.60
2023-01-15T13:32:36.633Z,99888.98
2023-01-15T13:35:14.797Z,99889.15
2023-01-15T13:37:47.402Z,99891.74
2023-01-15T13:40:23.892Z,99891.91
2023-01-15T13:42:51.231Z,99889.85
2023-01-15T13:45:33.112Z,99883.97
2023-01-15T13:48:27.746Z,99883.63
2023-01-15T13:51:02.557Z,99881.38
2023-01-15T13:53:48.957Z,99884.48
2023-01-15T13:56:26.706Z,99892.10
2023-01-15T13:58:53.904Z,99890.19
2023-01-15T14:01:41.936Z,99894.17
2023-01-15T14:10:17.671Z,99921.05
2023-01-15T14:12:57.061Z,99925.32
2023-01-15T14:15:32.867Z,99920.17
2023-01-15T14:18:03.014Z,99914.84
2023-01-15T14:21:32.232Z,99908.11
2023-01-15T14:24:08.580Z,99910.36
2023-01-15T14:27:00.854Z,99910.38
2023-01-15T14:29:32.430Z,99900.02
2023-01-15T14:32:23.777Z,99894.33
2023-01-15T14:34:57.762Z,99884.30
2023-01-15T14:37:27.244Z,99871.55
2023-01-15T14:39:57.955Z,99867.91
2023-01-15T14:42:47.588Z,99866.55
2023-01-15T14:45:26.388Z,99867.75
2023-01-15T14:47:54.946Z,99859.98
2023-01-15T14:50:38.737Z,99854.98
2023-01-15T14:53:15.085Z,99845.15
2023-01-15T14:55:57.057Z,99840.66
2023-01-15T14:58:45.685Z,99843.24
2023-01-15T15:01:26.094Z,99842.55
2023-01-15T15:04:14.610Z,99842.38
2023-01-15T19:55:54.295Z,99661.81
2023-01-15T19:58:21.677Z,99697.19
2023-01-15T20:00:48.888Z,99703.28
2023-01-15T20:03:16.003Z,99700.39
2023-01-15T20:05:43.799Z,99698.85
2023-01-15T20:08:18.321Z,99697.49
2023-01-15T20:10:47.116Z,99684.55
2023-01-15T20:13:41.332Z,99663.17
2023-01-15T20:16:18.634Z,99651.10
2023-01-15T20:18:48.997Z,99637.12
2023-01-15T20:21:16.487Z,99625.55
2023-01-15T20:23:45.089Z,99624.85
2023-01-15T20:26:13.712Z,99619.98
2023-01-15T20:28:42.583Z,99619.46
2023-01-15T20:31:17.411Z,99623.77
2023-01-15T20:33:44.847Z,99623.77
2023-01-15T20:36:11.992Z,99620.00
2023-01-15T20:38:39.040Z,99624.16
2023-01-15T20:41:26.262Z,99632.77
2023-01-15T20:44:12.541Z,99635.02
2023-01-15T20:46:39.541Z,99634.84
2023-01-15T20:49:25.349Z,99637.45
2023-01-15T20:51:54.885Z,99638.83
2023-01-15T20:54:22.525Z,99643.47
2023-01-15T20:56:49.576Z,99646.90
2023-01-15T20:59:16.862Z,99647.26
2023-01-15T21:01:44.090Z,99648.63
2023-01-15T21:04:13.821Z,99650.20
2023-01-15T21:06:41.301Z,99658.46
2023-01-15T21:09:08.947Z,99655.70
2023-01-15T21:11:35.979Z,99657.25
2023-01-15T21:14:03.023Z,99655.19
2023-01-15T21:16:30.021Z,99656.05
2023-01-15T21:19:01.207Z,99653.11
2023-01-15T21:21:28.425Z,99656.73
2023-01-15T21:23:55.802Z,99659.33
2023-01-15T21:26:24.647Z,99657.45
2023-01-15T21:28:55.484Z,99656.08
2023-01-15T21:31:23.079Z,99656.94
2023-01-15T21:33:53.268Z,99659.02
2023-01-15T21:36:20.368Z,99657.64
2023-01-15T21:38:51.796Z,99655.92
2023-01-15T21:41:18.870Z,99655.23
2023-01-15T21:44:04.508Z,99650.41
2023-01-15T21:46:32.045Z,99647.81
2023-01-15T21:48:59.353Z,99649.36
2023-01-15T21:51:26.959Z,99651.61
2023-01-15T21:53:54.247Z,99655.41
2023-01-15T21:56:21.322Z,99654.71
2023-01-15T21:58:48.574Z,99652.98
2023-01-15T22:01:15.948Z,99646.95
2023-01-15T22:03:43.260Z,99638.84
